Latest Weather Observations for Mount Lofty

IDS60901

Issued at 6:51 pm CST Monday 1 June 2020 (issued every 10 minutes, with the page automatically refreshed every 10 minutes)

About weather observations | Map of Adelaide area stations | Latest observations for Adelaide area | Other Formats
Station Details ID: 023842 Name: MOUNT LOFTY Lat: -34.98 Lon: 138.71 Height: 685.0 m
Data from the previous 72 hours. | See also: Recent months at Mount Lofty
Date/Time
CST
Temp
°C
App
Temp
°C
Dew
Point
°C
Rel
Hum
%
Delta-T
°C
Wind Press
QNH
hPa
Press
MSL
hPa
Rain since
9am
mm
Dir  Spd
km/h
Gust
km/h
Spd
kts
Gust
kts
01/06:30pm 6.3 4.2 5.6 95 0.3 W 6 11 3 6 - - 0.8
01/06:00pm 6.5 3.8 5.8 95 0.3 W 9 20 5 11 - - 0.8
01/05:30pm 6.5 3.8 5.6 94 0.4 W 9 22 5 12 - - 0.8
01/05:00pm 6.6 4.4 5.2 91 0.6 W 6 17 3 9 - - 0.8
01/04:30pm 6.9 4.1 5.1 88 0.8 W 9 22 5 12 - - 0.6
01/04:00pm 7.1 4.9 6.2 94 0.4 W 7 17 4 9 - - 0.6
01/03:30pm 7.2 3.6 4.9 85 1.1 W 13 33 7 18 - - 0.6
01/03:00pm 6.8 3.3 5.6 92 0.6 W 13 30 7 16 - - 0.6
01/02:30pm 7.3 4.3 6.2 93 0.5 W 11 24 6 13 - - 0.6
01/02:00pm 7.8 4.3 5.4 85 1.1 W 13 26 7 14 - - 0.4
01/01:30pm 6.9 3.5 5.8 93 0.5 W 13 26 7 14 - - 0.4
01/01:00pm 6.9 3.6 6.2 95 0.3 W 13 26 7 14 - - 0.4
01/12:30pm 6.9 3.6 6.3 96 0.3 W 13 30 7 16 - - 0.4
01/12:00pm 6.9 3.2 6.3 96 0.3 W 15 32 8 17 - - 0.4
01/11:30am 6.5 3.2 6.2 98 0.1 W 13 28 7 15 - - 0.4
01/11:00am 5.9 2.5 5.8 99 0.0 W 13 28 7 15 - - 0.4
01/10:30am 5.8 2.7 5.7 99 0.0 W 11 22 6 12 - - 0.2
01/10:00am 5.5 2.4 5.4 99 0.0 WSW 11 28 6 15 - - 0.2
01/09:30am 5.1 2.3 5.0 99 0.0 W 9 20 5 11 - - 0.0
01/09:00am 4.6 0.9 4.5 99 0.0 W 13 26 7 14 - - 31.2
01/08:30am 4.6 0.9 4.5 99 0.0 WSW 13 24 7 13 - - 31.0
01/08:00am 4.4 1.4 4.3 99 0.0 WSW 9 17 5 9 - - 30.4
01/07:30am 4.1 0.3 4.0 99 0.0 W 13 22 7 12 - - 30.0
01/07:00am 4.2 0.8 4.1 99 0.0 W 11 24 6 13 - - 29.0
01/06:30am 4.0 0.6 3.9 99 0.0 W 11 22 6 12 - - 29.0
01/06:00am 4.1 0.7 4.0 99 0.0 W 11 37 6 20 - - 29.0
01/05:30am 4.2 0.4 4.1 99 0.0 W 13 28 7 15 - - 29.0
01/05:00am 3.6 0.1 3.5 99 0.0 W 11 26 6 14 - - 28.8
01/04:30am 3.8 0.3 3.7 99 0.0 WSW 11 24 6 13 - - 28.2
01/04:00am 3.7 -0.5 3.6 99 0.0 WSW 15 32 8 17 - - 27.6
01/03:30am 3.9 -0.7 3.8 99 0.0 WSW 17 35 9 19 - - 27.4
01/03:00am 4.4 0.7 4.3 99 0.0 W 13 20 7 11 - - 27.0
01/02:30am 4.3 0.6 4.2 99 0.0 W 13 28 7 15 - - 27.0
01/02:00am 3.6 -1.4 3.5 99 0.0 W 19 48 10 26 - - 27.0
01/01:30am 4.9 1.3 4.8 99 0.0 W 13 33 7 18 - - 25.4
01/01:00am 5.1 0.7 5.0 99 0.0 W 17 35 9 19 - - 25.4
01/12:30am 5.4 0.5 5.3 99 0.0 W 20 54 11 29 - - 25.2
01/12:00am 6.0 0.9 6.0 100 0.0 W 22 39 12 21 - - 25.0
 
Date/Time
CST
Temp
°C
App
Temp
°C
Dew
Point
°C
Rel
Hum
%
Delta-T
°C
Wind Press
QNH
hPa
Press
MSL
hPa
Rain since
9am
mm
Dir  Spd
km/h
Gust
km/h
Spd
kts
Gust
kts
31/11:30pm 6.8 2.5 6.8 100 0.0 W 19 37 10 20 - - 25.0
31/11:00pm 7.1 2.6 7.1 100 0.0 W 20 35 11 19 - - 24.8
31/10:41pm 8.3 2.2 8.3 100 0.0 WNW 30 82 16 44 - - 24.4
31/10:30pm 8.3 2.6 8.3 100 0.0 WNW 28 50 15 27 - - 21.4
31/10:00pm 8.5 2.5 8.5 100 0.0 WNW 30 61 16 33 - - 17.4
31/09:31pm 8.3 2.6 8.3 100 0.0 WNW 28 50 15 27 - - 15.0
31/09:30pm 8.3 3.0 8.3 100 0.0 WNW 26 50 14 27 - - 15.0
31/09:00pm 8.2 1.5 8.2 100 0.0 NW 33 59 18 32 - - 13.6
31/08:30pm 8.4 2.3 8.4 100 0.0 WNW 30 50 16 27 - - 10.4
31/08:00pm 8.4 2.3 8.4 100 0.0 WNW 30 54 16 29 - - 10.0
31/07:30pm 8.4 2.0 8.4 100 0.0 WNW 32 52 17 28 - - 8.8
31/07:00pm 8.1 2.3 8.0 99 0.0 NW 28 54 15 29 - - 6.2
31/06:30pm 8.1 2.3 8.0 99 0.0 WNW 28 48 15 26 - - 4.0
31/06:00pm 7.8 1.9 7.7 99 0.0 WNW 28 52 15 28 - - 2.8
31/05:56pm 7.7 1.8 7.6 99 0.0 WNW 28 52 15 28 - - 2.6
31/05:30pm 7.7 2.2 7.6 99 0.0 WNW 26 46 14 25 - - 1.0
31/05:00pm 7.7 2.6 7.6 99 0.0 WNW 24 44 13 24 - - 0.6
31/04:30pm 7.5 2.0 7.4 99 0.0 WNW 26 44 14 24 - - 0.6
31/04:00pm 7.5 2.3 7.4 99 0.0 WNW 24 41 13 22 - - 0.6
31/03:30pm 7.5 2.3 7.4 99 0.0 WNW 24 43 13 23 - - 0.6
31/03:00pm 7.5 3.1 7.4 99 0.0 WNW 20 37 11 20 - - 0.6
31/02:30pm 7.3 3.0 7.2 99 0.0 WNW 19 35 10 19 - - 0.4
31/02:00pm 7.4 3.0 7.3 99 0.0 WNW 20 35 11 19 - - 0.0
31/01:30pm 7.4 2.6 7.3 99 0.0 WNW 22 41 12 22 - - 0.0
31/01:00pm 7.7 3.4 7.7 100 0.0 WNW 20 37 11 20 - - 0.0
31/12:30pm 7.2 2.9 7.2 100 0.0 WNW 19 33 10 18 - - 0.0
31/12:00pm 7.3 2.9 7.3 100 0.0 WNW 20 39 11 21 - - 0.0
31/11:30am 7.8 4.1 7.8 100 0.0 WNW 17 28 9 15 - - 0.0
31/11:00am 7.8 4.4 7.8 100 0.0 WNW 15 35 8 19 - - 0.0
31/10:30am 7.9 4.6 7.9 100 0.0 WNW 15 28 8 15 - - 0.0
31/10:00am 7.7 4.7 7.7 100 0.0 WNW 13 28 7 15 - - 0.0
31/09:30am 7.6 4.9 7.5 99 0.0 WNW 11 22 6 12 - - 0.0
31/09:00am 7.6 4.9 7.5 99 0.0 W 11 32 6 17 - - 4.4
31/08:30am 7.7 4.3 7.6 99 0.0 WNW 15 35 8 19 - - 4.4
31/08:00am 7.9 3.8 7.8 99 0.0 WNW 19 33 10 18 - - 4.4
31/07:30am 7.6 4.2 7.5 99 0.0 WNW 15 28 8 15 - - 4.4
31/07:00am 7.5 4.4 7.4 99 0.0 WNW 13 24 7 13 - - 4.4
31/06:30am 7.4 4.3 7.3 99 0.0 WNW 13 22 7 12 - - 4.4
31/06:00am 7.5 4.0 7.4 99 0.0 WNW 15 32 8 17 - - 4.4
31/05:30am 7.7 5.1 7.6 99 0.0 W 11 24 6 13 - - 4.4
31/05:00am 7.3 4.6 7.2 99 0.0 WNW 11 20 6 11 - - 4.4
31/04:30am 7.6 4.6 7.5 99 0.0 W 13 28 7 15 - - 4.2
31/04:00am 7.4 3.9 7.3 99 0.0 WNW 15 30 8 16 - - 3.6
31/03:30am 7.3 3.4 7.2 99 0.0 WNW 17 37 9 20 - - 3.6
31/03:00am 7.8 5.2 7.7 99 0.0 WNW 11 20 6 11 - - 3.6
31/02:30am 7.7 4.7 7.6 99 0.0 W 13 26 7 14 - - 3.6
31/02:00am 7.6 4.6 7.5 99 0.0 WNW 13 28 7 15 - - 3.6
31/01:30am 7.8 4.8 7.7 99 0.0 WNW 13 26 7 14 - - 3.4
31/01:00am 8.2 5.7 8.1 99 0.0 W 11 20 6 11 - - 2.2
31/12:30am 8.4 5.9 8.3 99 0.0 W 11 28 6 15 - - 2.2
31/12:00am 8.5 5.3 8.4 99 0.1 WNW 15 28 8 15 - - 2.2
 
Date/Time
CST
Temp
°C
App
Temp
°C
Dew
Point
°C
Rel
Hum
%
Delta-T
°C
Wind Press
QNH
hPa
Press
MSL
hPa
Rain since
9am
mm
Dir  Spd
km/h
Gust
km/h
Spd
kts
Gust
kts
30/11:30pm 8.7 5.5 8.6 99 0.1 WNW 15 32 8 17 - - 2.2
30/11:00pm 9.0 5.9 8.9 99 0.1 W 15 30 8 16 - - 2.2
30/10:30pm 9.4 5.5 9.3 99 0.1 WNW 20 41 11 22 - - 2.2
30/10:00pm 9.4 6.0 9.3 99 0.1 WNW 17 39 9 21 - - 2.2
30/09:30pm 9.0 4.6 8.9 99 0.1 WNW 22 46 12 25 - - 2.2
30/09:00pm 8.7 2.6 8.4 98 0.2 WNW 30 50 16 27 - - 2.2
30/08:30pm 8.5 1.8 8.1 97 0.2 WNW 33 56 18 30 - - 2.2
30/08:00pm 8.3 1.7 7.7 96 0.3 WNW 32 67 17 36 - - 2.2
30/07:52pm 8.3 2.4 7.5 95 0.4 WNW 28 52 15 28 - - 2.2
30/07:30pm 8.2 2.6 7.3 94 0.4 WNW 26 50 14 27 - - 2.0
30/07:15pm 8.4 2.4 6.9 90 0.7 WNW 28 48 15 26 - - 1.6
30/07:00pm 8.6 2.5 6.6 87 1.0 WNW 28 44 15 24 - - 1.4
30/06:50pm 8.7 2.5 6.2 84 1.2 NW 28 50 15 27 - - 1.0
30/06:30pm 9.3 3.3 5.5 77 1.8 NW 26 43 14 23 - - 1.0
30/06:00pm 9.8 3.7 5.0 72 2.3 NW 26 46 14 25 - - 1.0
30/05:30pm 10.1 3.6 4.9 70 2.4 NW 28 52 15 28 - - 1.0
30/05:29pm 10.2 3.8 5.0 70 2.4 NW 28 52 15 28 - - 1.0
30/05:00pm 10.5 5.1 4.4 66 2.8 NW 22 41 12 22 - - 1.0
30/04:30pm 10.2 4.8 4.6 68 2.6 NNW 22 39 12 21 - - 0.8
30/04:00pm 9.4 3.8 5.2 75 2.0 NNW 24 48 13 26 - - 0.8
30/03:30pm 9.3 4.0 4.9 74 2.1 NNW 22 39 12 21 - - 0.4
30/03:00pm 10.8 4.8 3.1 59 3.5 NW 24 43 13 23 - - 0.0
30/02:30pm 11.6 5.4 2.1 52 4.2 NNW 24 44 13 24 - - 0.0
30/02:00pm 11.6 4.6 1.8 51 4.3 NW 28 50 15 27 - - 0.0
30/01:30pm 11.7 4.5 3.2 56 3.9 NW 30 50 16 27 - - 0.0
30/01:24pm 11.6 4.5 3.6 58 3.7 NW 30 48 16 26 - - 0.0
30/01:00pm 12.4 6.0 3.1 53 4.3 NW 26 41 14 22 - - 0.0
30/12:30pm 12.9 7.1 2.2 48 4.8 NW 22 39 12 21 - - 0.0
30/12:00pm 13.8 7.4 3.0 48 5.0 NW 26 43 14 23 - - 0.0
30/11:51am 13.3 6.3 1.9 46 5.1 NW 28 50 15 27 - - 0.0
30/11:30am 13.1 7.8 3.2 51 4.6 NW 20 32 11 17 - - 0.0
30/11:00am 12.1 6.4 2.8 53 4.2 NNW 22 41 12 22 - - 0.0
30/10:30am 11.6 5.9 2.9 55 4.0 NNW 22 44 12 24 - - 0.0
30/10:00am 11.4 3.6 1.9 52 4.2 NNW 32 52 17 28 - - 0.0
30/09:30am 11.1 3.7 1.9 53 4.1 NNW 30 50 16 27 - - 0.0
30/09:00am 10.8 3.0 1.9 54 3.9 NNW 32 56 17 30 - - 0.0
30/08:30am 10.2 2.8 1.8 56 3.7 NNW 30 57 16 31 - - 0.0
30/08:00am 10.0 3.0 1.9 57 3.5 NNW 28 57 15 31 - - 0.0
30/07:30am 9.9 2.8 1.5 56 3.6 NNW 28 54 15 29 - - 0.0
30/07:00am 10.1 3.0 1.5 55 3.7 NNW 28 57 15 31 - - 0.0
30/06:36am 10.4 3.3 1.5 54 3.9 NNW 28 48 15 26 - - 0.0
30/06:30am 10.5 3.8 1.6 54 3.9 NNW 26 46 14 25 - - 0.0
30/06:03am 11.0 4.0 2.1 54 4.0 NNW 28 50 15 27 - - 0.0
30/06:00am 10.9 4.3 2.2 55 3.9 NNW 26 50 14 27 - - 0.0
30/05:30am 10.5 4.3 2.1 56 3.7 NW 24 43 13 23 - - 0.0
30/05:00am 10.6 4.4 2.2 56 3.7 NW 24 48 13 26 - - 0.0
30/04:30am 10.5 4.7 2.4 57 3.6 NW 22 39 12 21 - - 0.0
30/04:00am 10.3 4.5 2.4 58 3.5 NW 22 39 12 21 - - 0.0
30/03:30am 10.2 4.3 1.8 56 3.7 NW 22 41 12 22 - - 0.0
30/03:00am 10.4 4.1 1.5 54 3.9 NW 24 50 13 27 - - 0.0
30/02:30am 10.8 4.0 1.1 51 4.2 NW 26 46 14 25 - - 0.0
30/02:00am 10.3 4.7 0.9 52 4.0 NW 20 33 11 18 - - 0.0
30/01:30am 11.2 5.1 0.3 47 4.7 NW 22 39 12 21 - - 0.0
30/01:00am 11.5 5.8 0.6 47 4.7 NNW 20 41 11 22 - - 0.0
30/12:30am 11.6 6.7 2.1 52 4.2 NNW 17 35 9 19 - - 0.0
30/12:00am 11.4 7.0 2.7 55 3.9 NNW 15 32 8 17 - - 0.0
 
Date/Time
CST
Temp
°C
App
Temp
°C
Dew
Point
°C
Rel
Hum
%
Delta-T
°C
Wind Press
QNH
hPa
Press
MSL
hPa
Rain since
9am
mm
Dir  Spd
km/h
Gust
km/h
Spd
kts
Gust
kts
29/11:30pm 11.3 6.8 2.3 54 4.0 NNW 15 28 8 15 - - 0.0
29/11:00pm 11.3 7.1 1.8 52 4.2 N 13 28 7 15 - - 0.0
29/10:30pm 11.6 7.9 2.1 52 4.2 N 11 24 6 13 - - 0.0
29/10:00pm 11.1 8.2 2.4 55 3.9 NNE 7 15 4 8 - - 0.0
29/09:30pm 11.3 7.2 2.3 54 4.0 NNE 13 26 7 14 - - 0.0
29/09:00pm 11.3 8.0 2.3 54 4.0 NNE 9 20 5 11 - - 0.0
29/08:30pm 11.0 7.7 2.3 55 3.9 NNE 9 17 5 9 - - 0.0
29/08:00pm 11.3 8.0 2.6 55 3.9 N 9 20 5 11 - - 0.0
29/07:30pm 11.5 8.6 2.5 54 4.1 N 7 17 4 9 - - 0.0
29/07:00pm 11.5 7.9 2.8 55 3.9 N 11 20 6 11 - - 0.0

Latest Capital City Observations: Canberra | Sydney | Melbourne | Brisbane | Adelaide | Perth | Hobart | Darwin

Other formats

Comma delimited format used in spreadsheet applications
http://www.bom.gov.au/fwo/IDS60901/IDS60901.95678.axf

JavaScript Object Notation format (JSON) in row-major order
http://www.bom.gov.au/fwo/IDS60901/IDS60901.95678.json

Data quality

Most of these data are generated automatically and are frequently updated. Quality checks on data are not normally performed. It is possible for incorrect values to appear. Refer to information at About Latest Weather Observations and please check the disclaimer before using these data.